sensor_id;sensor_type;location;lat;lon;timestamp;pressure;altitude;pressure_sealevel;temperature;humidity
42335;BME280;27986;42.700;24.178;2023-02-22T06:53:08;93746.00;;;9.30;46.50
42335;BME280;27986;42.700;24.178;2023-02-22T06:55:34;93794.72;;;9.50;46.36
42335;BME280;27986;42.700;24.178;2023-02-22T06:58:00;93802.66;;;9.51;46.53
42335;BME280;27986;42.700;24.178;2023-02-22T07:00:28;93829.72;;;9.96;46.04
42335;BME280;27986;42.700;24.178;2023-02-22T07:02:54;93797.06;;;9.81;45.69
42335;BME280;27986;42.700;24.178;2023-02-22T07:05:22;93780.97;;;9.41;46.33
42335;BME280;27986;42.700;24.178;2023-02-22T07:07:52;93733.75;;;9.28;45.82
42335;BME280;27986;42.700;24.178;2023-02-22T07:10:26;93801.84;;;9.92;45.48
42335;BME280;27986;42.700;24.178;2023-02-22T07:12:52;93768.56;;;9.91;45.15
42335;BME280;27986;42.700;24.178;2023-02-22T07:15:19;93789.81;;;9.92;44.93
42335;BME280;27986;42.700;24.178;2023-02-22T07:17:46;93826.69;;;10.24;44.91
42335;BME280;27986;42.700;24.178;2023-02-22T07:20:11;93816.66;;;10.28;44.16
42335;BME280;27986;42.700;24.178;2023-02-22T07:22:38;93832.50;;;10.31;44.63
42335;BME280;27986;42.700;24.178;2023-02-22T07:25:05;93816.38;;;10.32;44.49
42335;BME280;27986;42.700;24.178;2023-02-22T07:27:31;93793.72;;;10.13;44.55
42335;BME280;27986;42.700;24.178;2023-02-22T07:29:57;93787.91;;;10.05;44.72
42335;BME280;27986;42.700;24.178;2023-02-22T07:32:23;93766.34;;;10.08;45.55
42335;BME280;27986;42.700;24.178;2023-02-22T07:34:48;93799.94;;;11.04;47.26
42335;BME280;27986;42.700;24.178;2023-02-22T07:37:23;93742.53;;;11.71;45.49
42335;BME280;27986;42.700;24.178;2023-02-22T07:39:48;93762.34;;;11.84;44.04
42335;BME280;27986;42.700;24.178;2023-02-22T07:42:14;93769.63;;;12.25;41.40
42335;BME280;27986;42.700;24.178;2023-02-22T07:44:40;93722.97;;;12.05;40.00
42335;BME280;27986;42.700;24.178;2023-02-22T07:47:05;93781.81;;;11.88;40.48
42335;BME280;27986;42.700;24.178;2023-02-22T07:49:31;93806.81;;;11.46;41.14
42335;BME280;27986;42.700;24.178;2023-02-22T07:51:59;93786.28;;;11.26;41.76
42335;BME280;27986;42.700;24.178;2023-02-22T07:54:24;93754.47;;;10.88;42.56
42335;BME280;27986;42.700;24.178;2023-02-22T07:56:51;93763.00;;;10.83;43.20
42335;BME280;27986;42.700;24.178;2023-02-22T07:59:16;93801.41;;;11.29;42.82
42335;BME280;27986;42.700;24.178;2023-02-22T08:01:42;93770.81;;;11.14;42.62
42335;BME280;27986;42.700;24.178;2023-02-22T08:04:10;93749.75;;;11.15;42.33
42335;BME280;27986;42.700;24.178;2023-02-22T08:06:36;93798.00;;;11.68;41.90
42335;BME280;27986;42.700;24.178;2023-02-22T08:09:04;93793.75;;;11.62;41.61
42335;BME280;27986;42.700;24.178;2023-02-22T08:11:29;93793.75;;;11.62;42.01
42335;BME280;27986;42.700;24.178;2023-02-22T08:13:56;93770.66;;;11.76;41.45
42335;BME280;27986;42.700;24.178;2023-02-22T08:16:22;93780.66;;;11.96;40.86
42335;BME280;27986;42.700;24.178;2023-02-22T08:22:09;93763.09;;;12.17;39.79
42335;BME280;27986;42.700;24.178;2023-02-22T08:24:38;93697.97;;;11.96;39.05
42335;BME280;27986;42.700;24.178;2023-02-22T08:27:05;93792.53;;;12.53;38.90
42335;BME280;27986;42.700;24.178;2023-02-22T08:29:30;93737.47;;;12.41;38.94
42335;BME280;27986;42.700;24.178;2023-02-22T08:32:01;93722.22;;;12.44;39.07
42335;BME280;27986;42.700;24.178;2023-02-22T08:34:36;93737.91;;;12.72;38.32
42335;BME280;27986;42.700;24.178;2023-02-22T08:37:06;93775.31;;;13.04;38.44
42335;BME280;27986;42.700;24.178;2023-02-22T08:39:40;93725.69;;;12.77;38.05
42335;BME280;27986;42.700;24.178;2023-02-22T08:42:06;93725.38;;;12.80;38.22
42335;BME280;27986;42.700;24.178;2023-02-22T08:44:34;93777.28;;;13.22;37.97
42335;BME280;27986;42.700;24.178;2023-02-22T08:46:59;93732.88;;;12.78;37.77
42335;BME280;27986;42.700;24.178;2023-02-22T08:49:25;93710.56;;;12.87;38.08
42335;BME280;27986;42.700;24.178;2023-02-22T08:51:50;93771.75;;;13.51;37.47
42335;BME280;27986;42.700;24.178;2023-02-22T08:54:19;93680.81;;;13.07;37.37
42335;BME280;27986;42.700;24.178;2023-02-22T08:56:47;93746.47;;;13.53;38.45
42335;BME280;27986;42.700;24.178;2023-02-22T08:59:13;93707.91;;;13.50;37.82
42335;BME280;27986;42.700;24.178;2023-02-22T09:01:42;93731.47;;;13.45;39.06
42335;BME280;27986;42.700;24.178;2023-02-22T09:04:07;93719.13;;;13.21;38.99
42335;BME280;27986;42.700;24.178;2023-02-22T09:06:33;93763.78;;;13.63;39.45
42335;BME280;27986;42.700;24.178;2023-02-22T09:09:07;93772.31;;;13.36;39.88
42335;BME280;27986;42.700;24.178;2023-02-22T09:11:32;93747.00;;;13.31;40.00
42335;BME280;27986;42.700;24.178;2023-02-22T09:13:58;93765.47;;;13.18;39.87
42335;BME280;27986;42.700;24.178;2023-02-22T09:16:23;93775.25;;;13.44;39.90
42335;BME280;27986;42.700;24.178;2023-02-22T09:18:49;93778.38;;;13.53;39.91
42335;BME280;27986;42.700;24.178;2023-02-22T09:21:14;93754.91;;;13.45;40.38
42335;BME280;27986;42.700;24.178;2023-02-22T09:23:40;93723.03;;;13.32;39.93
42335;BME280;27986;42.700;24.178;2023-02-22T09:26:08;93757.41;;;13.36;39.58
42335;BME280;27986;42.700;24.178;2023-02-22T09:28:35;93769.88;;;13.53;39.22
42335;BME280;27986;42.700;24.178;2023-02-22T09:31:00;93754.28;;;13.60;39.68
42335;BME280;27986;42.700;24.178;2023-02-22T09:33:26;93710.91;;;13.65;39.58
42335;BME280;27986;42.700;24.178;2023-02-22T09:35:51;93726.59;;;13.87;38.42
42335;BME280;27986;42.700;24.178;2023-02-22T09:38:22;93751.00;;;14.11;38.31
42335;BME280;27986;42.700;24.178;2023-02-22T09:40:55;93676.75;;;13.50;38.31
42335;BME280;27986;42.700;24.178;2023-02-22T09:54:13;93729.31;;;14.14;37.57
42335;BME280;27986;42.700;24.178;2023-02-22T09:56:43;93738.56;;;14.14;37.53
42335;BME280;27986;42.700;24.178;2023-02-22T09:59:14;93757.72;;;14.21;36.73
42335;BME280;27986;42.700;24.178;2023-02-22T10:01:47;93714.84;;;14.04;37.28
42335;BME280;27986;42.700;24.178;2023-02-22T10:04:33;93747.00;;;14.48;37.05
42335;BME280;27986;42.700;24.178;2023-02-22T10:07:05;93738.13;;;14.52;36.15
42335;BME280;27986;42.700;24.178;2023-02-22T10:09:39;93718.88;;;14.37;36.21
42335;BME280;27986;42.700;24.178;2023-02-22T10:12:36;93724.28;;;14.48;35.91
42335;BME280;27986;42.700;24.178;2023-02-22T10:25:51;93691.91;;;14.72;36.02
42335;BME280;27986;42.700;24.178;2023-02-22T10:28:27;93721.03;;;15.09;36.10
42335;BME280;27986;42.700;24.178;2023-02-22T10:31:02;93669.53;;;15.05;35.12
42335;BME280;27986;42.700;24.178;2023-02-22T10:33:36;93640.44;;;15.27;34.08
42335;BME280;27986;42.700;24.178;2023-02-22T10:36:18;93630.13;;;14.93;33.58
42335;BME280;27986;42.700;24.178;2023-02-22T10:38:55;93633.38;;;15.13;33.62
42335;BME280;27986;42.700;24.178;2023-02-22T10:43:52;93614.28;;;15.13;33.35
42335;BME280;27986;42.700;24.178;2023-02-22T10:46:20;93664.38;;;15.47;33.24
42335;BME280;27986;42.700;24.178;2023-02-22T10:48:53;93631.84;;;14.97;33.50
42335;BME280;27986;42.700;24.178;2023-02-22T10:51:19;93657.09;;;15.15;33.29
42335;BME280;27986;42.700;24.178;2023-02-22T10:53:55;93646.47;;;15.16;32.93
42335;BME280;27986;42.700;24.178;2023-02-22T10:56:23;93685.00;;;15.40;31.91
42335;BME280;27986;42.700;24.178;2023-02-22T10:58:55;93608.16;;;14.94;32.39
42335;BME280;27986;42.700;24.178;2023-02-22T11:06:34;93681.41;;;15.39;33.37
42335;BME280;27986;42.700;24.178;2023-02-22T11:09:06;93664.66;;;15.20;33.46
42335;BME280;27986;42.700;24.178;2023-02-22T11:11:35;93610.28;;;15.01;33.09
42335;BME280;27986;42.700;24.178;2023-02-22T11:14:01;93613.16;;;15.16;33.22
42335;BME280;27986;42.700;24.178;2023-02-22T11:16:41;93666.50;;;15.62;33.33
42335;BME280;27986;42.700;24.178;2023-02-22T11:19:23;93586.41;;;15.04;33.61
42335;BME280;27986;42.700;24.178;2023-02-22T11:21:56;93661.38;;;15.68;32.83
42335;BME280;27986;42.700;24.178;2023-02-22T11:24:24;93602.03;;;15.41;33.22
42335;BME280;27986;42.700;24.178;2023-02-22T11:26:57;93629.16;;;15.58;31.91
42335;BME280;27986;42.700;24.178;2023-02-22T11:29:34;93643.34;;;15.58;32.45
42335;BME280;27986;42.700;24.178;2023-02-22T11:32:10;93648.44;;;15.52;33.06
42335;BME280;27986;42.700;24.178;2023-02-22T11:34:39;93599.53;;;15.23;33.22
42335;BME280;27986;42.700;24.178;2023-02-22T11:40:16;93621.38;;;15.51;32.92
42335;BME280;27986;42.700;24.178;2023-02-22T11:42:44;93649.28;;;15.67;32.24
42335;BME280;27986;42.700;24.178;2023-02-22T11:45:28;93601.31;;;15.71;32.24
42335;BME280;27986;42.700;24.178;2023-02-22T11:47:57;93606.63;;;15.83;32.41
42335;BME280;27986;42.700;24.178;2023-02-22T11:56:16;93615.69;;;16.27;31.15
42335;BME280;27986;42.700;24.178;2023-02-22T12:18:50;93546.47;;;16.24;31.35
42335;BME280;27986;42.700;24.178;2023-02-22T12:21:25;93586.03;;;16.60;31.41
42335;BME280;27986;42.700;24.178;2023-02-22T12:24:08;93585.63;;;16.72;31.41
42335;BME280;27986;42.700;24.178;2023-02-22T12:26:45;93578.63;;;16.57;31.58
42335;BME280;27986;42.700;24.178;2023-02-22T12:35:41;93497.56;;;16.66;30.95
42335;BME280;27986;42.700;24.178;2023-02-22T12:38:56;93507.78;;;17.09;30.46
42335;BME280;27986;42.700;24.178;2023-02-22T12:42:14;93497.50;;;17.14;30.49
42335;BME280;27986;42.700;24.178;2023-02-22T12:45:10;93580.59;;;17.60;30.52
42335;BME280;27986;42.700;24.178;2023-02-22T12:48:43;93524.88;;;17.09;30.05
42335;BME280;27986;42.700;24.178;2023-02-22T12:54:12;93576.81;;;17.58;29.62
42335;BME280;27986;42.700;24.178;2023-02-22T13:00:00;93486.22;;;16.99;29.51
42335;BME280;27986;42.700;24.178;2023-02-22T13:02:44;93541.25;;;17.34;29.17
42335;BME280;27986;42.700;24.178;2023-02-22T13:05:50;93525.94;;;17.22;29.76
42335;BME280;27986;42.700;24.178;2023-02-22T13:08:26;93536.56;;;17.21;29.54
42335;BME280;27986;42.700;24.178;2023-02-22T13:10:56;93552.59;;;17.66;29.69
42335;BME280;27986;42.700;24.178;2023-02-22T13:19:02;93571.78;;;17.41;30.73
42335;BME280;27986;42.700;24.178;2023-02-22T13:21:46;93576.69;;;17.15;30.56
42335;BME280;27986;42.700;24.178;2023-02-22T13:24:25;93579.06;;;17.34;31.04
42335;BME280;27986;42.700;24.178;2023-02-22T13:27:07;93582.25;;;17.71;30.39
42335;BME280;27986;42.700;24.178;2023-02-22T13:29:41;93487.09;;;16.76;30.52
42335;BME280;27986;42.700;24.178;2023-02-22T13:40:58;93559.28;;;17.36;30.64
42335;BME280;27986;42.700;24.178;2023-02-22T13:52:51;93528.78;;;16.89;29.89
42335;BME280;27986;42.700;24.178;2023-02-22T13:55:27;93516.16;;;17.07;29.55
42335;BME280;27986;42.700;24.178;2023-02-22T13:58:08;93544.97;;;17.44;29.31
42335;BME280;27986;42.700;24.178;2023-02-22T14:00:45;93544.50;;;17.55;29.03
42335;BME280;27986;42.700;24.178;2023-02-22T14:16:26;93554.56;;;16.43;31.18
42335;BME280;27986;42.700;24.178;2023-02-22T14:19:04;93524.53;;;16.02;31.36
42335;BME280;27986;42.700;24.178;2023-02-22T14:21:54;93543.28;;;15.97;31.67
42335;BME280;27986;42.700;24.178;2023-02-22T14:24:21;93538.19;;;15.88;31.79
42335;BME280;27986;42.700;24.178;2023-02-22T14:27:06;93556.75;;;16.04;31.43
42335;BME280;27986;42.700;24.178;2023-02-22T14:29:32;93551.81;;;15.97;31.99
42335;BME280;27986;42.700;24.178;2023-02-22T14:34:55;93561.66;;;16.27;31.88
42335;BME280;27986;42.700;24.178;2023-02-22T14:37:28;93521.69;;;15.94;31.55
42335;BME280;27986;42.700;24.178;2023-02-22T14:40:01;93561.66;;;16.27;32.07
42335;BME280;27986;42.700;24.178;2023-02-22T14:42:38;93551.63;;;16.11;32.05
42335;BME280;27986;42.700;24.178;2023-02-22T14:47:43;93570.44;;;15.98;32.26
42335;BME280;27986;42.700;24.178;2023-02-22T14:50:20;93545.75;;;15.55;32.76
42335;BME280;27986;42.700;24.178;2023-02-22T14:53:04;93540.09;;;15.25;33.01
42335;BME280;27986;42.700;24.178;2023-02-22T14:55:36;93547.88;;;15.39;33.23
42335;BME280;27986;42.700;24.178;2023-02-22T14:58:12;93550.34;;;15.81;33.69
42335;BME280;27986;42.700;24.178;2023-02-22T15:00:48;93542.75;;;15.84;33.57
42335;BME280;27986;42.700;24.178;2023-02-22T15:03:25;93544.28;;;15.92;32.57
42335;BME280;27986;42.700;24.178;2023-02-22T15:06:13;93539.53;;;15.87;32.61
42335;BME280;27986;42.700;24.178;2023-02-22T15:08:41;93553.50;;;16.23;32.97
42335;BME280;27986;42.700;24.178;2023-02-22T15:11:24;93554.97;;;16.95;31.81
42335;BME280;27986;42.700;24.178;2023-02-22T15:13:55;93516.06;;;16.90;31.38
42335;BME280;27986;42.700;24.178;2023-02-22T15:16:28;93534.13;;;16.85;32.73
42335;BME280;27986;42.700;24.178;2023-02-22T15:19:03;93501.25;;;16.44;31.54
42335;BME280;27986;42.700;24.178;2023-02-22T15:21:33;93528.63;;;16.31;31.91
42335;BME280;27986;42.700;24.178;2023-02-22T15:24:01;93554.47;;;16.11;32.30
42335;BME280;27986;42.700;24.178;2023-02-22T15:26:31;93559.59;;;15.97;32.80
42335;BME280;27986;42.700;24.178;2023-02-22T15:29:07;93546.72;;;15.88;32.97
42335;BME280;27986;42.700;24.178;2023-02-22T15:31:36;93554.50;;;15.88;33.19
42335;BME280;27986;42.700;24.178;2023-02-22T15:34:30;93539.16;;;15.68;33.49
42335;BME280;27986;42.700;24.178;2023-02-22T15:37:11;93540.31;;;15.72;33.75
42335;BME280;27986;42.700;24.178;2023-02-22T15:39:38;93532.91;;;15.62;34.33
42335;BME280;27986;42.700;24.178;2023-02-22T15:42:15;93514.72;;;15.49;34.28
42335;BME280;27986;42.700;24.178;2023-02-22T15:44:49;93544.28;;;15.39;34.80
42335;BME280;27986;42.700;24.178;2023-02-22T15:47:29;93562.63;;;15.30;35.27
42335;BME280;27986;42.700;24.178;2023-02-22T15:52:56;93546.53;;;15.40;35.06
42335;BME280;27986;42.700;24.178;2023-02-22T15:57:58;93550.72;;;15.39;35.52
42335;BME280;27986;42.700;24.178;2023-02-22T16:00:27;93557.16;;;15.40;35.72
42335;BME280;27986;42.700;24.178;2023-02-22T16:03:02;93508.06;;;15.01;35.99
42335;BME280;27986;42.700;24.178;2023-02-22T16:05:41;93554.13;;;15.30;36.09
42335;BME280;27986;42.700;24.178;2023-02-22T16:08:23;93554.47;;;15.19;36.44
42335;BME280;27986;42.700;24.178;2023-02-22T16:10:51;93567.72;;;15.16;36.76
42335;BME280;27986;42.700;24.178;2023-02-22T16:13:19;93571.78;;;14.77;37.70
42335;BME280;27986;42.700;24.178;2023-02-22T16:18:31;93574.25;;;14.45;38.30
42335;BME280;27986;42.700;24.178;2023-02-22T16:21:06;93577.34;;;14.47;38.67
42335;BME280;27986;42.700;24.178;2023-02-22T16:26:29;93552.63;;;14.26;38.90
42335;BME280;27986;42.700;24.178;2023-02-22T16:29:05;93560.03;;;14.29;39.06
42335;BME280;27986;42.700;24.178;2023-02-22T16:31:36;93557.00;;;13.99;39.71
42335;BME280;27986;42.700;24.178;2023-02-22T16:34:04;93588.44;;;14.08;39.93
42335;BME280;27986;42.700;24.178;2023-02-22T16:36:56;93568.50;;;13.65;40.63
42335;BME280;27986;42.700;24.178;2023-02-22T16:39:29;93580.16;;;13.61;40.71
42335;BME280;27986;42.700;24.178;2023-02-22T16:41:57;93563.63;;;13.23;41.43
42335;BME280;27986;42.700;24.178;2023-02-22T16:44:23;93566.34;;;12.95;41.42
42335;BME280;27986;42.700;24.178;2023-02-22T16:46:54;93556.72;;;12.77;42.03
42335;BME280;27986;42.700;24.178;2023-02-22T16:49:20;93600.03;;;13.06;42.38
42335;BME280;27986;42.700;24.178;2023-02-22T16:51:50;93569.47;;;12.71;42.76
42335;BME280;27986;42.700;24.178;2023-02-22T16:54:27;93564.97;;;12.54;43.05
42335;BME280;27986;42.700;24.178;2023-02-22T16:56:54;93616.72;;;12.49;43.69
42335;BME280;27986;42.700;24.178;2023-02-22T16:59:21;93615.78;;;12.47;44.37
42335;BME280;27986;42.700;24.178;2023-02-22T17:01:50;93598.19;;;12.01;44.68
42335;BME280;27986;42.700;24.178;2023-02-22T17:04:24;93609.81;;;12.24;44.67
42335;BME280;27986;42.700;24.178;2023-02-22T17:06:51;93580.59;;;11.95;45.24
42335;BME280;27986;42.700;24.178;2023-02-22T17:09:17;93568.94;;;11.72;45.40
42335;BME280;27986;42.700;24.178;2023-02-22T17:11:48;93570.22;;;11.71;45.25
42335;BME280;27986;42.700;24.178;2023-02-22T17:14:20;93623.06;;;12.16;45.00
42335;BME280;27986;42.700;24.178;2023-02-22T17:16:48;93627.22;;;12.15;45.07
42335;BME280;27986;42.700;24.178;2023-02-22T17:19:15;93604.66;;;11.69;45.83
42335;BME280;27986;42.700;24.178;2023-02-22T17:21:42;93611.56;;;11.10;47.17
42335;BME280;27986;42.700;24.178;2023-02-22T17:24:12;93634.53;;;11.19;47.75
42335;BME280;27986;42.700;24.178;2023-02-22T17:26:39;93607.63;;;10.99;47.90
42335;BME280;27986;42.700;24.178;2023-02-22T17:29:04;93613.25;;;10.99;47.90
42335;BME280;27986;42.700;24.178;2023-02-22T17:31:30;93618.69;;;10.97;47.83
42335;BME280;27986;42.700;24.178;2023-02-22T17:34:02;93612.81;;;10.95;48.08
42335;BME280;27986;42.700;24.178;2023-02-22T17:36:30;93630.56;;;11.09;47.79
42335;BME280;27986;42.700;24.178;2023-02-22T17:38:56;93654.41;;;11.27;47.54
42335;BME280;27986;42.700;24.178;2023-02-22T17:41:22;93642.94;;;11.38;47.26
42335;BME280;27986;42.700;24.178;2023-02-22T17:43:47;93602.31;;;10.96;48.00
42335;BME280;27986;42.700;24.178;2023-02-22T17:46:13;93591.06;;;11.09;47.69
42335;BME280;27986;42.700;24.178;2023-02-22T17:48:38;93599.75;;;11.11;47.86
42335;BME280;27986;42.700;24.178;2023-02-22T17:51:08;93617.00;;;11.08;48.03
42335;BME280;27986;42.700;24.178;2023-02-22T17:53:35;93641.47;;;11.18;48.44
42335;BME280;27986;42.700;24.178;2023-02-22T17:56:09;93626.06;;;11.00;48.48
42335;BME280;27986;42.700;24.178;2023-02-22T17:58:35;93644.44;;;11.07;48.79
42335;BME280;27986;42.700;24.178;2023-02-22T18:01:02;93604.53;;;10.84;48.76
42335;BME280;27986;42.700;24.178;2023-02-22T18:03:28;93609.03;;;10.74;49.32
42335;BME280;27986;42.700;24.178;2023-02-22T18:05:56;93610.72;;;10.64;49.68
42335;BME280;27986;42.700;24.178;2023-02-22T18:08:22;93621.84;;;10.75;49.63
42335;BME280;27986;42.700;24.178;2023-02-22T18:10:49;93636.31;;;10.66;49.77
42335;BME280;27986;42.700;24.178;2023-02-22T18:13:20;93618.34;;;10.31;50.33
42335;BME280;27986;42.700;24.178;2023-02-22T18:15:47;93611.72;;;10.04;51.12
42335;BME280;27986;42.700;24.178;2023-02-22T18:18:13;93595.09;;;9.82;51.53
42335;BME280;27986;42.700;24.178;2023-02-22T18:20:41;93601.47;;;9.82;51.38
42335;BME280;27986;42.700;24.178;2023-02-22T18:23:12;93600.72;;;9.57;52.35
42335;BME280;27986;42.700;24.178;2023-02-22T18:25:38;93601.72;;;9.60;52.71
42335;BME280;27986;42.700;24.178;2023-02-22T18:28:06;93621.44;;;9.84;52.33
42335;BME280;27986;42.700;24.178;2023-02-22T18:30:36;93612.56;;;9.75;52.70
42335;BME280;27986;42.700;24.178;2023-02-22T18:33:02;93631.19;;;9.59;53.49
42335;BME280;27986;42.700;24.178;2023-02-22T18:35:28;93646.19;;;9.67;53.10
42335;BME280;27986;42.700;24.178;2023-02-22T18:37:54;93621.78;;;9.51;52.80
42335;BME280;27986;42.700;24.178;2023-02-22T18:40:19;93594.75;;;9.12;53.19
42335;BME280;27986;42.700;24.178;2023-02-22T18:42:45;93646.06;;;9.54;52.95
42335;BME280;27986;42.700;24.178;2023-02-22T18:45:11;93596.66;;;9.28;53.07
42335;BME280;27986;42.700;24.178;2023-02-22T18:47:41;93588.34;;;9.17;53.53
42335;BME280;27986;42.700;24.178;2023-02-22T18:50:10;93596.91;;;9.30;53.46
42335;BME280;27986;42.700;24.178;2023-02-22T18:52:37;93562.91;;;8.98;53.82
42335;BME280;27986;42.700;24.178;2023-02-22T18:55:14;93626.09;;;9.27;53.84
42335;BME280;27986;42.700;24.178;2023-02-22T18:57:40;93597.56;;;9.12;53.76
42335;BME280;27986;42.700;24.178;2023-02-22T19:00:10;93636.88;;;9.48;53.62
42335;BME280;27986;42.700;24.178;2023-02-22T19:02:36;93616.00;;;9.38;53.38
42335;BME280;27986;42.700;24.178;2023-02-22T19:05:02;93617.88;;;8.99;54.83
42335;BME280;27986;42.700;24.178;2023-02-22T19:07:28;93650.63;;;8.97;55.60
42335;BME280;27986;42.700;24.178;2023-02-22T19:09:53;93624.56;;;8.91;55.58
42335;BME280;27986;42.700;24.178;2023-02-22T19:12:19;93669.84;;;9.23;55.38
42335;BME280;27986;42.700;24.178;2023-02-22T19:14:44;93680.19;;;9.09;55.74
42335;BME280;27986;42.700;24.178;2023-02-22T19:17:11;93646.84;;;8.89;56.39
42335;BME280;27986;42.700;24.178;2023-02-22T19:19:43;93662.47;;;8.84;55.92
42335;BME280;27986;42.700;24.178;2023-02-22T19:22:10;93654.25;;;8.45;56.62
42335;BME280;27986;42.700;24.178;2023-02-22T19:24:40;93635.13;;;8.38;56.50
42335;BME280;27986;42.700;24.178;2023-02-22T19:27:06;93670.38;;;8.86;55.81
42335;BME280;27986;42.700;24.178;2023-02-22T19:29:31;93644.44;;;8.68;56.13
42335;BME280;27986;42.700;24.178;2023-02-22T19:31:57;93651.28;;;8.73;55.92
42335;BME280;27986;42.700;24.178;2023-02-22T19:34:22;93676.22;;;8.93;56.24
42335;BME280;27986;42.700;24.178;2023-02-22T19:36:50;93654.94;;;8.62;56.84
42335;BME280;27986;42.700;24.178;2023-02-22T19:39:18;93696.81;;;8.66;56.72
42335;BME280;27986;42.700;24.178;2023-02-22T19:41:45;93673.69;;;8.32;57.73
42335;BME280;27986;42.700;24.178;2023-02-22T19:44:10;93701.50;;;8.52;57.86
42335;BME280;27986;42.700;24.178;2023-02-22T19:46:36;93654.81;;;8.38;57.10
42335;BME280;27986;42.700;24.178;2023-02-22T19:49:02;93701.94;;;8.67;56.98
42335;BME280;27986;42.700;24.178;2023-02-22T19:51:30;93707.88;;;8.47;58.02
42335;BME280;27986;42.700;24.178;2023-02-22T19:54:00;93710.94;;;8.49;58.28
42335;BME280;27986;42.700;24.178;2023-02-22T19:56:27;93696.44;;;8.39;58.22
42335;BME280;27986;42.700;24.178;2023-02-22T19:58:57;93691.88;;;8.25;58.50
42335;BME280;27986;42.700;24.178;2023-02-22T20:01:28;93702.31;;;8.36;58.41
42335;BME280;27986;42.700;24.178;2023-02-22T20:04:00;93712.53;;;8.39;58.62
42335;BME280;27986;42.700;24.178;2023-02-22T20:06:29;93709.72;;;8.39;59.07
42335;BME280;27986;42.700;24.178;2023-02-22T20:08:56;93717.38;;;8.33;58.90
42335;BME280;27986;42.700;24.178;2023-02-22T20:11:22;93716.69;;;8.04;60.07
42335;BME280;27986;42.700;24.178;2023-02-22T20:13:49;93710.06;;;7.96;60.27
42335;BME280;27986;42.700;24.178;2023-02-22T20:16:14;93729.72;;;8.07;60.30
42335;BME280;27986;42.700;24.178;2023-02-22T20:18:43;93695.03;;;7.88;60.78
42335;BME280;27986;42.700;24.178;2023-02-22T20:21:11;93716.44;;;8.02;60.43
42335;BME280;27986;42.700;24.178;2023-02-22T20:23:38;93719.03;;;7.95;60.65
42335;BME280;27986;42.700;24.178;2023-02-22T20:26:17;93677.75;;;7.67;60.64
42335;BME280;27986;42.700;24.178;2023-02-22T20:28:46;93734.28;;;8.16;59.94
42335;BME280;27986;42.700;24.178;2023-02-22T20:31:13;93698.66;;;7.77;60.52
42335;BME280;27986;42.700;24.178;2023-02-22T20:33:40;93697.91;;;7.66;60.80
42335;BME280;27986;42.700;24.178;2023-02-22T20:36:08;93699.41;;;7.78;60.60
42335;BME280;27986;42.700;24.178;2023-02-22T20:38:34;93701.69;;;7.85;60.76
42335;BME280;27986;42.700;24.178;2023-02-22T20:40:59;93679.00;;;7.72;60.62
42335;BME280;27986;42.700;24.178;2023-02-22T20:43:25;93668.81;;;7.74;59.68
42335;BME280;27986;42.700;24.178;2023-02-22T20:45:50;93691.94;;;8.08;58.97
42335;BME280;27986;42.700;24.178;2023-02-22T20:48:16;93721.25;;;8.24;58.84
42335;BME280;27986;42.700;24.178;2023-02-22T20:50:41;93702.13;;;8.06;58.89
42335;BME280;27986;42.700;24.178;2023-02-22T20:53:07;93721.31;;;8.02;59.21
42335;BME280;27986;42.700;24.178;2023-02-22T20:55:32;93723.91;;;7.72;60.45
42335;BME280;27986;42.700;24.178;2023-02-22T20:57:58;93707.81;;;7.78;60.07
42335;BME280;27986;42.700;24.178;2023-02-22T21:00:23;93720.78;;;7.98;59.68
42335;BME280;27986;42.700;24.178;2023-02-22T21:02:49;93706.03;;;7.92;59.33
42335;BME280;27986;42.700;24.178;2023-02-22T21:05:14;93685.44;;;7.44;60.47
42335;BME280;27986;42.700;24.178;2023-02-22T21:07:40;93717.56;;;7.60;61.09
42335;BME280;27986;42.700;24.178;2023-02-22T21:10:06;93707.38;;;7.40;61.52
42335;BME280;27986;42.700;24.178;2023-02-22T21:12:34;93714.50;;;7.36;62.10
42335;BME280;27986;42.700;24.178;2023-02-22T21:15:00;93739.00;;;7.41;62.85
42335;BME280;27986;42.700;24.178;2023-02-22T21:17:25;93684.66;;;7.04;63.48
42335;BME280;27986;42.700;24.178;2023-02-22T21:19:57;93734.91;;;7.42;63.57
42335;BME280;27986;42.700;24.178;2023-02-22T21:22:23;93703.78;;;7.17;63.32
42335;BME280;27986;42.700;24.178;2023-02-22T21:24:49;93737.44;;;7.28;63.88
42335;BME280;27986;42.700;24.178;2023-02-22T21:27:15;93728.53;;;7.19;64.39
42335;BME280;27986;42.700;24.178;2023-02-22T21:29:41;93719.09;;;7.16;64.22
42335;BME280;27986;42.700;24.178;2023-02-22T21:32:07;93733.88;;;7.39;63.58
42335;BME280;27986;42.700;24.178;2023-02-22T21:34:33;93712.72;;;7.27;63.29
42335;BME280;27986;42.700;24.178;2023-02-22T21:36:59;93707.09;;;7.38;63.00
42335;BME280;27986;42.700;24.178;2023-02-22T21:39:24;93705.59;;;7.31;62.70
42335;BME280;27986;42.700;24.178;2023-02-22T21:41:53;93740.25;;;7.56;62.55
42335;BME280;27986;42.700;24.178;2023-02-22T21:44:21;93749.94;;;7.55;62.77
42335;BME280;27986;42.700;24.178;2023-02-22T21:46:46;93706.31;;;7.54;61.66
42335;BME280;27986;42.700;24.178;2023-02-22T21:49:15;93716.78;;;7.59;61.52
42335;BME280;27986;42.700;24.178;2023-02-22T21:51:43;93743.06;;;7.62;61.52
42335;BME280;27986;42.700;24.178;2023-02-22T21:54:10;93696.91;;;7.35;61.69
42335;BME280;27986;42.700;24.178;2023-02-22T21:56:38;93702.25;;;7.22;62.08
42335;BME280;27986;42.700;24.178;2023-02-22T21:59:14;93735.66;;;7.31;63.38
42335;BME280;27986;42.700;24.178;2023-02-22T22:01:48;93717.28;;;7.13;63.71
42335;BME280;27986;42.700;24.178;2023-02-22T22:04:19;93718.84;;;7.25;63.20
42335;BME280;27986;42.700;24.178;2023-02-22T22:06:47;93730.56;;;7.29;63.63
42335;BME280;27986;42.700;24.178;2023-02-22T22:09:14;93711.69;;;7.36;62.70